Portada
METAR-TAF:

METAR-TAF

Aeroports :

Saipan, Illes Mariannes, Estats Units d'Amèrica

latitud: 15-07N, longitud: 145-44E, altitud: 66 m

Observació

L'informe es va fer fa 1 hora i 13 minuts, a les 10:54 UTC
Vent 12 kt del Est
Temperatura 28°C
Humitat 79%
Pressió 1014 hPa
Visibilitat: 16.1 km
Cel clar

METAR: PGSN 241054Z 10012KT 10SM CLR 28/24 A2993 RMK AO2 SLP158 T02830239

Hora: 22:07 (12:07 UTC)

Pronòstic

L'informe es va fer fa 40 minuts, a les 11:27 UTC
Pronòstic vàlid del 24 a les 12 UTC al 25 a les 12 UTC
Vent 14 kt del Est
Visibilitat: 10 km
Escasses núvols a una alçada de 1800 ft
Núvols disperses a una alçada de 3500 ft
xàfecs en les proximitats

TAF: PGSN 241127Z 2412/2512 09014KT P6SM VCSH FEW018 SCT035

Observacions i pronòstics meteorològics de més de 4000 aeroports (METAR i TAF).

Les estacions disponibles són els punts grocs i vermells al mapa.

Posi el ratolí al punt desitjat per veure el nom de l'estació.

Feu clic per veure les observacions i els pronòstics meteorològics.

Per canviar el mapa: feu clic els botons verds amb una creu de color negre per apropar; al botó verd amb un guió per allunyar la imatge; o en les fletxes verdes per a mapes adjacents.


METAR-TAF: